Hlavní strana
METAR-TAF:

METAR-TAF

Letiště :

Chartúm, Súdán

zeměpisná šířka: 15-36N, zeměpisná délka: 032-33E, výška: 382 m

Aktuální stav počasí

Zpráva byla vytvořena před 16 minutami, v 11:00 UTC
Severní vítr 8 kt
Teplota 31°C
Vlhkost vzduchu 21%
Tlak 1012 hPa
Viditelnost 10 km a více
Žádná oblačnost pod 1500 m, nevyskytují se cumulonimby.

METAR: HSSS 101100Z 35008KT CAVOK 31/06 Q1012 NOSIG

Čas: 13:16 (11:16 UTC)

Předpověď počasí

Zpráva byla vytvořena před 6 hodinami a 16 minutami, v 05:00 UTC
Předpověď platná od 10 v 06 UTC do 11 v 12 UTC
Severoseverozápadní vítr 9 kt
Viditelnost 10 km a více
Žádná oblačnost pod 1500 m, nevyskytují se cumulonimby.

TAF: HSSS 100500Z 1006/1112 34009KT CAVOK

Stav a předpovědi počasí z více než 4 000 letišť (zprávy METAR a TAF).

Červené a žluté tečky na mapě představují dostupné meteorologické stanice.

Když kurzor umístíte na tečku, zobrazí se název stanice.

Pak kliknutím zobrazíte stav a předpověď počasí.

Chcete-li změnit mapu, kliknutím na zelené tlačítko se znaménkem +mapu přiblížíte, kliknutím na zelené tlačítko se znaménkem – mapu oddálíte a kliknutím na zelené šipky přejdete na sousední mapy.


METAR-TAF: